createdAt,value
2022-09-13T00:00:40.544Z,98928.97
2022-09-13T00:01:42.482Z,98928.57
2022-09-13T00:02:45.459Z,98926.70
2022-09-13T00:03:47.327Z,98929.50
2022-09-13T00:04:49.153Z,98925.14
2022-09-13T00:05:51.476Z,98925.48
2022-09-13T00:06:53.451Z,98925.48
2022-09-13T00:07:56.310Z,98923.52
2022-09-13T00:08:58.154Z,98922.88
2022-09-13T00:10:00.014Z,98920.38
2022-09-13T00:11:02.103Z,98924.73
2022-09-13T00:12:04.588Z,98922.39
2022-09-13T00:13:07.767Z,98922.20
2022-09-13T00:14:09.817Z,98917.00
2022-09-13T00:15:12.000Z,98920.53
2022-09-13T00:16:17.883Z,98921.56
2022-09-13T00:17:19.874Z,98922.31
2022-09-13T00:18:22.308Z,98915.18
2022-09-13T00:19:24.342Z,98915.18
2022-09-13T00:20:26.885Z,98925.68
2022-09-13T00:21:29.155Z,98918.18
2022-09-13T00:22:31.168Z,98922.54
2022-09-13T00:23:33.459Z,98923.18
2022-09-13T00:24:35.377Z,98924.79
2022-09-13T00:25:38.126Z,98919.40
2022-09-13T00:26:40.218Z,98920.14
2022-09-13T00:27:42.913Z,98916.79
2022-09-13T00:28:46.724Z,98919.58
2022-09-13T00:29:48.788Z,98916.97
2022-09-13T00:30:50.654Z,98922.11
2022-09-13T00:31:53.440Z,98919.58
2022-09-13T00:32:55.538Z,98927.22
2022-09-13T00:35:09.409Z,98923.35
2022-09-13T00:36:12.587Z,98920.29
2022-09-13T00:37:21.918Z,98921.03
2022-09-13T00:38:24.455Z,98927.92
2022-09-13T00:39:27.573Z,98915.08
2022-09-13T00:40:34.956Z,98922.89
2022-09-13T00:41:37.331Z,98926.97
2022-09-13T00:42:39.220Z,98921.22
2022-09-13T00:43:45.077Z,98921.72
2022-09-13T00:44:53.832Z,98917.33
2022-09-13T00:45:55.991Z,98919.00
2022-09-13T00:46:58.397Z,98927.75
2022-09-13T00:48:04.044Z,98915.47
2022-09-13T00:49:12.756Z,98920.47
2022-09-13T00:50:40.028Z,98918.61
2022-09-13T00:51:45.481Z,98913.75
2022-09-13T00:53:14.231Z,98916.46
2022-09-13T00:54:19.816Z,98919.89
2022-09-13T00:55:43.969Z,98916.35
2022-09-13T00:56:52.690Z,98921.35
2022-09-13T00:57:58.702Z,98922.31
2022-09-13T00:59:16.857Z,98915.61
2022-09-13T01:00:21.055Z,98918.96
2022-09-13T01:01:26.822Z,98911.03
2022-09-13T01:02:29.552Z,98919.89
2022-09-13T01:03:34.497Z,98918.22
2022-09-13T01:04:37.972Z,98918.22
2022-09-13T01:05:43.420Z,98918.85
2022-09-13T01:06:46.899Z,98919.70
2022-09-13T01:07:50.563Z,98918.22
2022-09-13T01:08:53.495Z,98915.08
2022-09-13T01:09:55.538Z,98915.65
2022-09-13T01:11:00.066Z,98910.05
2022-09-13T01:12:06.306Z,98922.15
2022-09-13T01:13:14.661Z,98910.79
2022-09-13T01:14:19.118Z,98918.43
2022-09-13T01:15:21.466Z,98911.72
2022-09-13T01:16:25.557Z,98922.15
2022-09-13T01:17:29.394Z,98918.22
2022-09-13T01:18:31.895Z,98923.88
2022-09-13T01:19:35.082Z,98921.95
2022-09-13T01:20:46.622Z,98917.66
2022-09-13T01:22:10.611Z,98924.98
2022-09-13T01:23:49.988Z,98918.94
2022-09-13T01:25:16.735Z,98920.70
2022-09-13T01:26:42.752Z,98922.66
2022-09-13T01:27:57.762Z,98928.09
2022-09-13T01:29:15.538Z,98923.03
2022-09-13T01:30:24.997Z,98919.53
2022-09-13T01:31:46.282Z,98921.20
2022-09-13T01:33:07.350Z,98924.63
2022-09-13T01:34:40.509Z,98917.45
2022-09-13T01:36:08.333Z,98920.70
2022-09-13T01:37:31.885Z,98922.66
2022-09-13T01:38:40.423Z,98921.66
2022-09-13T01:40:03.874Z,98916.63
2022-09-13T01:41:24.169Z,98916.63
2022-09-13T01:42:39.423Z,98918.59
2022-09-13T01:44:18.793Z,98914.31
2022-09-13T01:45:26.999Z,98915.31
2022-09-13T01:46:38.968Z,98917.66
2022-09-13T01:48:03.572Z,98921.02
2022-09-13T01:49:17.726Z,98923.63
2022-09-13T01:50:36.147Z,98920.80
2022-09-13T01:51:50.993Z,98914.13
2022-09-13T01:52:56.667Z,98922.88
2022-09-13T01:54:05.333Z,98920.16
2022-09-13T01:55:37.367Z,98920.27
2022-09-13T01:56:52.352Z,98921.28
2022-09-13T01:58:06.593Z,98920.16
2022-09-13T01:59:24.440Z,98913.20
2022-09-13T02:00:30.467Z,98914.31
2022-09-13T02:01:48.139Z,98918.03
2022-09-13T02:02:56.520Z,98918.22
2022-09-13T02:04:02.642Z,98918.96
2022-09-13T02:05:11.289Z,98912.61
2022-09-13T02:06:27.443Z,98920.42
2022-09-13T02:07:40.776Z,98913.64
2022-09-13T02:10:04.998Z,98920.41
2022-09-13T02:11:17.054Z,98913.91
2022-09-13T02:12:25.058Z,98919.05
2022-09-13T02:13:30.672Z,98914.37
2022-09-13T02:14:36.290Z,98911.13
2022-09-13T02:15:42.463Z,98913.73
2022-09-13T02:16:57.119Z,98912.23
2022-09-13T02:18:05.769Z,98908.70
2022-09-13T02:19:33.161Z,98906.09
2022-09-13T02:20:39.530Z,98909.55
2022-09-13T02:21:45.133Z,98914.84
2022-09-13T02:22:50.731Z,98919.34
2022-09-13T02:24:05.417Z,98910.59
2022-09-13T02:25:11.607Z,98907.66
2022-09-13T02:26:15.364Z,98919.13
2022-09-13T02:27:23.956Z,98910.59
2022-09-13T02:28:32.280Z,98917.66
2022-09-13T02:29:37.006Z,98914.13
2022-09-13T02:30:42.671Z,98907.98
2022-09-13T02:31:54.050Z,98914.31
2022-09-13T02:32:59.715Z,98906.75
2022-09-13T02:34:06.403Z,98903.61
2022-09-13T02:35:12.141Z,98905.29
2022-09-13T02:36:22.290Z,98903.61
2022-09-13T02:37:26.949Z,98909.36
2022-09-13T02:38:49.479Z,98909.47
2022-09-13T02:39:55.245Z,98909.57
2022-09-13T02:41:04.194Z,98904.47
2022-09-13T02:42:12.431Z,98906.51
2022-09-13T02:43:20.496Z,98898.51
2022-09-13T02:44:34.833Z,98903.22
2022-09-13T02:45:43.618Z,98902.39
2022-09-13T02:47:04.880Z,98895.50
2022-09-13T02:48:36.743Z,98899.04
2022-09-13T02:49:42.957Z,98901.64
2022-09-13T02:50:55.406Z,98898.00
2022-09-13T02:52:10.613Z,98909.84
2022-09-13T02:53:31.134Z,98906.20
2022-09-13T02:54:36.738Z,98903.70
2022-09-13T02:55:48.754Z,98901.81
2022-09-13T02:57:06.735Z,98896.59
2022-09-13T02:58:15.984Z,98904.05
2022-09-13T02:59:20.805Z,98908.52
2022-09-13T03:00:24.209Z,98902.55
2022-09-13T03:01:26.985Z,98904.98
2022-09-13T03:02:32.793Z,98909.16
2022-09-13T03:03:34.965Z,98905.50
2022-09-13T03:04:36.992Z,98898.20
2022-09-13T03:05:39.300Z,98902.55
2022-09-13T03:06:41.395Z,98901.09
2022-09-13T03:07:43.387Z,98899.53
2022-09-13T03:08:45.762Z,98905.72
2022-09-13T03:09:51.801Z,98904.07
2022-09-13T03:11:23.565Z,98903.88
2022-09-13T03:12:47.725Z,98905.56
2022-09-13T03:14:14.791Z,98910.37
2022-09-13T03:15:35.350Z,98907.02
2022-09-13T03:16:56.259Z,98910.48
2022-09-13T03:18:05.090Z,98902.18
2022-09-13T03:19:19.505Z,98914.31
2022-09-13T03:20:45.412Z,98902.66
2022-09-13T03:22:12.405Z,98908.52
2022-09-13T03:23:24.099Z,98903.70
2022-09-13T03:24:29.692Z,98905.45
2022-09-13T03:25:41.509Z,98898.48
2022-09-13T03:27:22.475Z,98908.91
2022-09-13T03:28:28.479Z,98899.12
2022-09-13T03:29:46.155Z,98902.97
2022-09-13T03:30:54.946Z,98905.80
2022-09-13T03:32:03.456Z,98903.19
2022-09-13T03:33:12.415Z,98901.51
2022-09-13T03:34:21.040Z,98908.19
2022-09-13T03:35:29.516Z,98903.08
2022-09-13T03:36:38.721Z,98902.33
2022-09-13T03:37:47.374Z,98903.08
2022-09-13T03:38:57.001Z,98909.33
2022-09-13T03:40:11.376Z,98905.16
2022-09-13T03:41:20.508Z,98909.41
2022-09-13T03:42:26.134Z,98896.30
2022-09-13T03:43:31.735Z,98906.51
2022-09-13T03:44:37.401Z,98901.75
2022-09-13T03:45:52.241Z,98909.28
2022-09-13T03:46:58.237Z,98905.92
2022-09-13T03:48:02.924Z,98908.25
2022-09-13T03:49:08.488Z,98910.31
2022-09-13T03:50:14.286Z,98904.78
2022-09-13T03:51:16.757Z,98908.91
2022-09-13T03:52:19.563Z,98907.12
2022-09-13T03:53:25.205Z,98910.59
2022-09-13T03:54:31.883Z,98905.16
2022-09-13T03:55:37.678Z,98918.20
2022-09-13T03:56:39.868Z,98922.30
2022-09-13T03:57:41.989Z,98912.58
2022-09-13T03:58:44.004Z,98916.63
2022-09-13T03:59:54.564Z,98917.81
2022-09-13T04:00:56.649Z,98918.75
2022-09-13T04:01:59.260Z,98920.11
2022-09-13T04:03:01.235Z,98911.33
2022-09-13T04:04:03.790Z,98923.24
2022-09-13T04:05:06.380Z,98923.42
2022-09-13T04:06:08.913Z,98919.89
2022-09-13T04:07:14.602Z,98924.36
2022-09-13T04:08:16.860Z,98922.89
2022-09-13T04:09:18.683Z,98914.62
2022-09-13T04:10:22.408Z,98926.08
2022-09-13T04:11:25.425Z,98925.25
2022-09-13T04:12:27.399Z,98921.25
2022-09-13T04:13:29.235Z,98924.45
2022-09-13T04:14:31.365Z,98918.11
2022-09-13T04:15:33.406Z,98918.11
2022-09-13T04:16:35.409Z,98922.19
2022-09-13T04:17:37.448Z,98926.47
2022-09-13T04:18:39.308Z,98924.61
2022-09-13T04:19:43.910Z,98931.28
2022-09-13T04:20:55.484Z,98923.29
2022-09-13T04:21:57.580Z,98928.68
2022-09-13T04:22:59.463Z,98926.03
2022-09-13T04:24:01.797Z,98924.25
2022-09-13T04:25:04.963Z,98931.52
2022-09-13T04:26:09.911Z,98927.24
2022-09-13T04:27:12.562Z,98932.27
2022-09-13T04:28:17.502Z,98927.45
2022-09-13T04:29:21.058Z,98936.19
2022-09-13T04:30:23.344Z,98932.30
2022-09-13T04:31:25.618Z,98930.62
2022-09-13T04:32:30.032Z,98928.78
2022-09-13T04:33:33.043Z,98933.61
2022-09-13T04:34:35.079Z,98931.92
2022-09-13T04:35:37.123Z,98933.61
2022-09-13T04:36:40.856Z,98931.55
2022-09-13T04:37:43.124Z,98922.59
2022-09-13T04:38:46.221Z,98934.90
2022-09-13T04:39:49.433Z,98925.95
2022-09-13T04:40:54.851Z,98930.98
2022-09-13T04:41:56.798Z,98931.63
2022-09-13T04:43:01.032Z,98935.70
2022-09-13T04:44:03.094Z,98932.45
2022-09-13T04:45:05.757Z,98934.95
2022-09-13T04:46:08.815Z,98935.80
2022-09-13T04:47:11.095Z,98930.59
2022-09-13T04:48:13.424Z,98936.84
2022-09-13T04:49:17.249Z,98932.45
2022-09-13T04:50:20.953Z,98930.06
2022-09-13T04:51:24.771Z,98937.66
2022-09-13T04:52:26.670Z,98940.09
2022-09-13T04:53:28.751Z,98935.05
2022-09-13T04:54:30.992Z,98941.20
2022-09-13T04:55:32.793Z,98936.38
2022-09-13T04:56:35.207Z,98940.83
2022-09-13T04:57:37.585Z,98937.58
2022-09-13T04:58:40.272Z,98936.92
2022-09-13T04:59:42.889Z,98938.43
2022-09-13T05:00:45.647Z,98931.27
2022-09-13T05:01:47.797Z,98940.39
2022-09-13T05:02:55.566Z,98944.84
2022-09-13T05:03:57.601Z,98934.16
2022-09-13T05:04:59.546Z,98940.87
2022-09-13T05:06:03.982Z,98937.31
2022-09-13T05:07:05.926Z,98939.19
2022-09-13T05:08:08.193Z,98945.22
2022-09-13T05:09:13.026Z,98945.88
2022-09-13T05:10:19.496Z,98945.88
2022-09-13T05:11:25.881Z,98942.63
2022-09-13T05:12:27.720Z,98943.00
2022-09-13T05:13:30.762Z,98942.25
2022-09-13T05:14:33.180Z,98942.25
2022-09-13T05:15:34.995Z,98937.14
2022-09-13T05:16:37.537Z,98944.58
2022-09-13T05:17:40.288Z,98942.83
2022-09-13T05:18:45.281Z,98945.05
2022-09-13T05:19:46.183Z,98946.53
2022-09-13T05:20:47.974Z,98951.66
2022-09-13T05:21:49.721Z,98944.20
2022-09-13T05:22:51.774Z,98955.74
2022-09-13T05:23:55.989Z,98942.45
2022-09-13T05:24:57.839Z,98944.78
2022-09-13T05:26:03.077Z,98944.78
2022-09-13T05:27:05.163Z,98944.78
2022-09-13T05:28:07.149Z,98945.22
2022-09-13T05:29:09.971Z,98949.77
2022-09-13T05:30:13.105Z,98950.52
2022-09-13T05:31:18.145Z,98951.08
2022-09-13T05:32:20.750Z,98946.25
2022-09-13T05:33:22.940Z,98958.34
2022-09-13T05:34:25.284Z,98947.94
2022-09-13T05:35:27.635Z,98951.28
2022-09-13T05:36:32.974Z,98955.16
2022-09-13T05:37:35.147Z,98952.92
2022-09-13T05:38:38.076Z,98958.50
2022-09-13T05:40:07.368Z,98952.00
2022-09-13T05:40:44.988Z,98956.65
2022-09-13T05:41:47.674Z,98956.27
2022-09-13T05:42:52.768Z,98957.94
2022-09-13T05:43:58.555Z,98959.41
2022-09-13T05:44:58.939Z,98957.19
2022-09-13T05:46:12.853Z,98957.73
2022-09-13T05:47:15.146Z,98965.16
2022-09-13T05:48:17.175Z,98964.83
2022-09-13T05:49:19.143Z,98966.47
2022-09-13T05:50:45.206Z,98967.97
2022-09-13T05:51:27.054Z,98970.48
2022-09-13T05:52:28.965Z,98967.12
2022-09-13T05:53:31.377Z,98966.13
2022-09-13T05:54:33.369Z,98966.73
2022-09-13T05:55:35.178Z,98971.13
2022-09-13T05:56:39.326Z,98969.05
2022-09-13T05:57:41.186Z,98976.98
2022-09-13T05:58:45.501Z,98971.87
2022-09-13T05:59:47.955Z,98976.33
2022-09-13T06:00:56.946Z,98973.45
2022-09-13T06:01:59.037Z,98975.97
2022-09-13T06:03:01.074Z,98977.64
2022-09-13T06:04:03.299Z,98970.59
2022-09-13T06:05:05.651Z,98977.38
2022-09-13T06:06:09.801Z,98975.60
2022-09-13T06:07:11.955Z,98976.25
2022-09-13T06:08:14.515Z,98978.58
2022-09-13T06:09:17.654Z,98987.04
2022-09-13T06:10:19.938Z,98981.27
2022-09-13T06:11:23.361Z,98982.19
2022-09-13T06:12:25.251Z,98985.28
2022-09-13T06:13:28.180Z,98985.28
2022-09-13T06:14:31.060Z,98983.40
2022-09-13T06:15:33.601Z,98986.76
2022-09-13T06:16:35.809Z,98986.97
2022-09-13T06:17:38.126Z,98977.47
2022-09-13T06:18:40.414Z,98987.31
2022-09-13T06:19:42.222Z,98982.68
2022-09-13T06:20:44.241Z,98987.30
2022-09-13T06:21:45.995Z,98985.55
2022-09-13T06:22:48.422Z,98983.19
2022-09-13T06:23:53.529Z,98987.27
2022-09-13T06:24:55.386Z,98987.08
2022-09-13T06:26:05.516Z,98983.38
2022-09-13T06:27:07.444Z,98983.91
2022-09-13T06:28:10.012Z,98989.72
2022-09-13T06:29:12.320Z,98989.72
2022-09-13T06:30:15.513Z,98990.11
2022-09-13T06:31:19.872Z,98988.05
2022-09-13T06:32:22.184Z,98986.91
2022-09-13T06:33:24.084Z,98990.83
2022-09-13T06:34:30.970Z,98987.87
2022-09-13T06:35:30.229Z,98989.13
2022-09-13T06:36:32.474Z,98989.91
2022-09-13T06:37:34.912Z,98995.11
2022-09-13T06:38:39.408Z,98999.77
2022-09-13T06:39:41.521Z,99002.09
2022-09-13T06:40:43.718Z,99005.73
2022-09-13T06:41:45.756Z,99005.52
2022-09-13T06:42:48.840Z,98999.33
2022-09-13T06:43:56.296Z,99010.39
2022-09-13T06:44:58.656Z,99001.94
2022-09-13T06:46:10.059Z,99005.20
2022-09-13T06:47:12.765Z,99002.47
2022-09-13T06:48:15.030Z,99004.97
2022-09-13T06:49:17.146Z,99004.97
2022-09-13T06:50:19.820Z,99000.73
2022-09-13T06:51:23.873Z,98997.31
2022-09-13T06:52:26.695Z,98999.33
2022-09-13T06:53:29.431Z,99002.27
2022-09-13T06:54:31.817Z,99005.29
2022-09-13T06:55:34.116Z,99002.13
2022-09-13T06:56:38.623Z,98998.25
2022-09-13T06:57:40.943Z,99002.75
2022-09-13T06:58:46.833Z,98995.45
2022-09-13T06:59:48.804Z,98998.17
2022-09-13T07:00:55.470Z,98994.81
2022-09-13T07:01:54.456Z,99002.94
2022-09-13T07:02:56.537Z,99001.42
2022-09-13T07:04:01.713Z,99000.55
2022-09-13T07:05:04.674Z,99000.55
2022-09-13T07:06:21.505Z,99009.94
2022-09-13T07:07:21.244Z,99007.97
2022-09-13T07:08:23.162Z,99010.80
2022-09-13T07:09:25.131Z,99007.94
2022-09-13T07:10:27.104Z,99007.94
2022-09-13T07:11:33.770Z,99015.19
2022-09-13T07:12:35.745Z,99012.80
2022-09-13T07:13:38.384Z,99019.69
2022-09-13T07:14:50.244Z,99013.23
2022-09-13T07:15:54.753Z,99015.05
2022-09-13T07:16:57.087Z,99019.58
2022-09-13T07:17:59.321Z,99018.83
2022-09-13T07:19:04.426Z,99015.58
2022-09-13T07:20:08.636Z,99018.76
2022-09-13T07:21:11.108Z,99021.26
2022-09-13T07:22:13.034Z,99023.97
2022-09-13T07:23:15.541Z,99021.36
2022-09-13T07:24:18.502Z,99016.22
2022-09-13T07:25:20.597Z,99016.87
2022-09-13T07:26:24.419Z,99016.72
2022-09-13T07:27:26.377Z,99013.19
2022-09-13T07:28:35.097Z,99014.38
2022-09-13T07:29:35.482Z,99019.22
2022-09-13T07:30:37.390Z,99015.58
2022-09-13T07:31:42.029Z,99014.27
2022-09-13T07:32:44.619Z,99006.98
2022-09-13T07:33:48.040Z,99012.19
2022-09-13T07:34:51.286Z,99007.38
2022-09-13T07:35:57.841Z,99015.97
2022-09-13T07:36:59.792Z,99009.73
2022-09-13T07:38:01.694Z,99011.51
2022-09-13T07:39:04.780Z,99014.66
2022-09-13T07:40:08.450Z,99012.80
2022-09-13T07:41:16.443Z,99007.97
2022-09-13T07:42:18.548Z,99009.98
2022-09-13T07:43:20.658Z,99010.76
2022-09-13T07:44:22.552Z,99016.52
2022-09-13T07:45:24.914Z,99017.47
2022-09-13T07:46:29.961Z,99015.14
2022-09-13T07:47:32.395Z,99009.93
2022-09-13T07:48:38.049Z,99014.11
2022-09-13T07:49:40.624Z,99007.69
2022-09-13T07:50:42.667Z,99013.08
2022-09-13T07:51:45.273Z,99010.96
2022-09-13T07:52:47.699Z,99010.68
2022-09-13T07:53:56.510Z,99010.19
2022-09-13T07:54:55.404Z,99008.80
2022-09-13T07:56:05.126Z,99000.23
2022-09-13T07:57:08.750Z,99007.05
2022-09-13T07:58:10.597Z,99004.05
2022-09-13T07:59:14.808Z,98999.87
2022-09-13T08:00:17.377Z,98999.87
2022-09-13T08:01:23.489Z,99007.77
2022-09-13T08:02:25.991Z,99006.84
2022-09-13T08:03:28.399Z,99003.48
2022-09-13T08:04:34.479Z,99004.23
2022-09-13T08:05:39.218Z,99004.44
2022-09-13T08:06:41.349Z,99012.69
2022-09-13T08:07:43.702Z,99002.76
2022-09-13T08:08:46.241Z,99006.39
2022-09-13T08:09:48.178Z,99009.83
2022-09-13T08:10:50.754Z,99002.86
2022-09-13T08:11:53.092Z,99009.08
2022-09-13T08:12:55.225Z,98999.78
2022-09-13T08:13:58.304Z,99009.45
2022-09-13T08:15:00.179Z,99005.66
2022-09-13T08:16:04.433Z,99004.57
2022-09-13T08:17:06.412Z,99005.66
2022-09-13T08:18:09.110Z,99009.02
2022-09-13T08:19:18.077Z,98999.80
2022-09-13T08:20:23.695Z,99005.22
2022-09-13T08:21:26.862Z,99006.14
2022-09-13T08:22:29.253Z,99003.54
2022-09-13T08:23:31.253Z,99002.03
2022-09-13T08:24:33.089Z,99010.05
2022-09-13T08:25:36.501Z,99000.28
2022-09-13T08:26:38.559Z,99008.55
2022-09-13T08:27:40.430Z,99011.16
2022-09-13T08:28:43.547Z,99010.16
2022-09-13T08:29:45.443Z,99005.22
2022-09-13T08:30:49.009Z,98999.26
2022-09-13T08:31:51.345Z,99008.00
2022-09-13T08:32:53.167Z,99011.16
2022-09-13T08:33:56.206Z,98999.36
2022-09-13T08:34:58.211Z,99002.13
2022-09-13T08:36:00.714Z,99003.22
2022-09-13T08:37:02.749Z,98995.58
2022-09-13T08:38:05.851Z,99003.30
2022-09-13T08:39:09.295Z,98997.26
2022-09-13T08:40:12.423Z,98996.41
2022-09-13T08:41:35.398Z,98994.08
2022-09-13T08:42:49.935Z,98998.83
2022-09-13T08:43:58.766Z,99008.16
2022-09-13T08:45:02.102Z,99001.73
2022-09-13T08:46:08.016Z,98997.91
2022-09-13T08:47:22.861Z,98994.34
2022-09-13T08:48:28.482Z,99001.08
2022-09-13T08:49:37.157Z,99001.08
2022-09-13T08:50:40.776Z,98995.66
2022-09-13T08:51:55.864Z,98994.19
2022-09-13T08:53:07.940Z,98994.73
2022-09-13T08:54:11.607Z,99001.08
2022-09-13T08:55:26.416Z,98997.65
2022-09-13T08:56:52.397Z,98993.44
2022-09-13T08:57:57.987Z,98989.36
2022-09-13T08:59:27.895Z,98990.19
2022-09-13T09:00:43.005Z,98985.67
2022-09-13T09:02:06.568Z,98986.98
2022-09-13T09:03:18.255Z,98986.23
2022-09-13T09:04:27.061Z,98984.38
2022-09-13T09:05:32.057Z,98984.17
2022-09-13T09:06:36.556Z,98989.22
2022-09-13T09:07:42.318Z,98975.06
2022-09-13T09:08:58.157Z,98975.06
2022-09-13T09:10:03.645Z,98983.36
2022-09-13T09:11:21.260Z,98986.62
2022-09-13T09:12:32.537Z,98986.14
2022-09-13T09:13:38.417Z,98983.63
2022-09-13T09:14:47.766Z,98991.45
2022-09-13T09:15:53.896Z,98993.23
2022-09-13T09:17:08.016Z,98995.18
2022-09-13T09:18:14.751Z,98993.12
2022-09-13T09:19:23.148Z,98999.26
2022-09-13T09:20:42.388Z,98983.25
2022-09-13T09:21:48.051Z,98989.97
2022-09-13T09:22:52.558Z,98989.39
2022-09-13T09:23:56.063Z,98986.23
2022-09-13T09:24:58.642Z,98985.84
2022-09-13T09:26:06.897Z,98989.00
2022-09-13T09:27:12.521Z,98989.38
2022-09-13T09:28:17.157Z,98987.05
2022-09-13T09:29:25.247Z,98985.48
2022-09-13T09:30:38.462Z,98983.08
2022-09-13T09:32:07.027Z,98982.98
2022-09-13T09:33:24.845Z,98989.77
2022-09-13T09:34:56.999Z,98986.02
2022-09-13T09:36:15.388Z,98982.42
2022-09-13T09:37:27.250Z,98984.64
2022-09-13T09:38:43.229Z,98994.58
2022-09-13T09:39:45.399Z,98988.22
2022-09-13T09:40:48.852Z,98986.77
2022-09-13T09:41:54.990Z,98988.08
2022-09-13T09:42:58.619Z,98998.12
2022-09-13T09:44:16.887Z,98988.67
2022-09-13T09:45:28.527Z,98990.05
2022-09-13T09:46:35.017Z,98989.22
2022-09-13T09:47:40.715Z,98988.67
2022-09-13T09:48:55.572Z,98993.13
2022-09-13T09:50:04.075Z,98993.67
2022-09-13T09:51:08.960Z,99000.02
2022-09-13T09:52:14.564Z,98995.91
2022-09-13T09:53:22.984Z,98995.53
2022-09-13T09:54:26.935Z,98998.88
2022-09-13T09:55:44.074Z,98996.00
2022-09-13T09:56:54.313Z,98991.06
2022-09-13T09:58:01.626Z,98992.09
2022-09-13T09:59:03.678Z,98989.38
2022-09-13T10:00:11.311Z,98986.41
2022-09-13T10:01:29.811Z,98994.87
2022-09-13T10:02:34.442Z,98997.67
2022-09-13T10:03:39.009Z,98996.09
2022-09-13T10:04:41.143Z,98995.33
2022-09-13T10:05:44.623Z,98993.52
2022-09-13T10:06:46.866Z,98989.47
2022-09-13T10:07:55.249Z,98994.01
2022-09-13T10:10:27.238Z,98982.58
2022-09-13T10:11:43.578Z,98986.44
2022-09-13T10:12:52.442Z,98988.58
2022-09-13T10:14:00.141Z,98983.22
2022-09-13T10:15:20.820Z,98985.94
2022-09-13T10:16:27.340Z,98991.97
2022-09-13T10:17:29.690Z,98988.41
2022-09-13T10:18:43.958Z,98998.08
2022-09-13T10:19:43.062Z,98988.52
2022-09-13T10:21:08.297Z,98988.80
2022-09-13T10:22:12.533Z,98995.87
2022-09-13T10:23:18.070Z,98989.13
2022-09-13T10:24:22.098Z,98989.13
2022-09-13T10:25:26.357Z,98990.44
2022-09-13T10:26:32.126Z,99002.76
2022-09-13T10:27:41.357Z,99002.00
2022-09-13T10:28:59.244Z,98989.00
2022-09-13T10:30:04.065Z,98996.81
2022-09-13T10:31:12.759Z,99005.02
2022-09-13T10:32:14.472Z,98997.95
2022-09-13T10:33:32.815Z,98995.80
2022-09-13T10:34:36.499Z,98996.27
2022-09-13T10:35:39.039Z,98994.31
2022-09-13T10:36:56.685Z,98993.36
2022-09-13T10:37:58.912Z,98993.36
2022-09-13T10:39:13.621Z,98996.90
2022-09-13T10:40:23.108Z,99001.62
2022-09-13T10:41:28.432Z,98998.62
2022-09-13T10:42:31.037Z,98995.66
2022-09-13T10:43:34.793Z,98996.94
2022-09-13T10:44:45.776Z,98999.55
2022-09-13T10:45:52.315Z,98992.69
2022-09-13T10:46:56.566Z,98991.94
2022-09-13T10:48:04.972Z,98996.53
2022-09-13T10:49:11.008Z,98998.86
2022-09-13T10:50:22.625Z,98994.01
2022-09-13T10:51:34.480Z,99000.59
2022-09-13T10:52:48.589Z,98994.73
2022-09-13T10:53:50.651Z,98992.69
2022-09-13T10:54:54.792Z,98999.41
2022-09-13T10:55:57.470Z,98997.16
2022-09-13T10:56:59.933Z,99000.15
2022-09-13T10:58:08.678Z,98996.05
2022-09-13T10:59:23.504Z,98989.91
2022-09-13T11:00:35.491Z,98995.40
2022-09-13T11:01:49.801Z,98999.24
2022-09-13T11:03:28.939Z,98998.49
2022-09-13T11:05:10.616Z,98994.20
2022-09-13T11:06:32.518Z,98989.57
2022-09-13T11:08:00.741Z,98996.69
2022-09-13T11:09:12.752Z,98992.61
2022-09-13T11:10:22.328Z,98996.33
2022-09-13T11:11:34.479Z,98997.83
2022-09-13T11:12:52.345Z,99004.84
2022-09-13T11:14:10.754Z,98992.27
2022-09-13T11:15:28.664Z,99000.94
2022-09-13T11:16:58.097Z,98996.83
2022-09-13T11:18:23.449Z,98991.61
2022-09-13T11:20:06.713Z,98993.94
2022-09-13T11:21:40.990Z,98997.68
2022-09-13T11:22:55.890Z,98995.35
2022-09-13T11:24:20.039Z,98993.88
2022-09-13T11:25:42.248Z,98991.44
2022-09-13T11:26:54.135Z,99001.30
2022-09-13T11:28:22.055Z,98997.78
2022-09-13T11:29:48.549Z,98998.44
2022-09-13T11:31:20.279Z,99007.45
2022-09-13T11:32:29.611Z,99003.54
2022-09-13T11:33:38.298Z,99006.04
2022-09-13T11:35:16.740Z,99016.02
2022-09-13T11:36:27.327Z,99004.74
2022-09-13T11:37:35.907Z,99008.75
2022-09-13T11:38:44.229Z,99008.75
2022-09-13T11:40:07.397Z,99006.22
2022-09-13T11:41:35.695Z,99006.87
2022-09-13T11:42:44.644Z,99007.16
2022-09-13T11:43:55.989Z,99001.30
2022-09-13T11:45:26.042Z,99010.05
2022-09-13T11:46:49.256Z,99009.78
2022-09-13T11:47:57.647Z,99007.45
2022-09-13T11:49:26.655Z,99003.16
2022-09-13T11:50:47.603Z,99011.15
2022-09-13T11:52:22.029Z,99006.87
2022-09-13T11:53:39.875Z,99012.66
2022-09-13T11:55:03.686Z,99007.27
2022-09-13T11:56:10.001Z,99009.22
2022-09-13T11:57:16.805Z,99009.66
2022-09-13T11:58:23.031Z,99005.48
2022-09-13T11:59:40.891Z,99012.53
2022-09-13T12:00:49.903Z,99013.38
2022-09-13T12:02:01.554Z,99014.86
2022-09-13T12:03:16.710Z,99013.38
2022-09-13T12:04:33.582Z,99008.73
2022-09-13T12:05:36.638Z,99006.66
2022-09-13T12:06:42.368Z,99007.98
2022-09-13T12:07:48.051Z,99010.68
2022-09-13T12:08:59.646Z,99007.16
2022-09-13T12:10:08.179Z,99004.28
2022-09-13T12:11:19.288Z,99003.63
2022-09-13T12:12:24.604Z,99002.97
2022-09-13T12:13:29.931Z,99007.63
2022-09-13T12:14:48.682Z,99007.98
2022-09-13T12:15:57.018Z,99013.20
2022-09-13T12:17:05.061Z,99008.27
2022-09-13T12:18:16.441Z,99013.20
2022-09-13T12:19:22.086Z,99012.09
2022-09-13T12:20:34.538Z,99014.20
2022-09-13T12:21:40.082Z,99013.94
2022-09-13T12:22:50.244Z,99015.23
2022-09-13T12:24:03.206Z,99014.04
2022-09-13T12:25:09.066Z,99011.89
2022-09-13T12:26:41.117Z,99008.58
2022-09-13T12:27:47.078Z,99013.03
2022-09-13T12:28:59.118Z,99015.36
2022-09-13T12:30:07.754Z,99018.97
2022-09-13T12:31:16.742Z,99014.72
2022-09-13T12:32:20.508Z,99017.85
2022-09-13T12:33:24.891Z,99017.03
2022-09-13T12:34:55.036Z,99009.66
2022-09-13T12:36:21.801Z,99010.80
2022-09-13T12:37:39.734Z,99015.89
2022-09-13T12:40:26.127Z,99009.67
2022-09-13T12:41:47.826Z,99010.52
2022-09-13T12:43:02.706Z,99017.67
2022-09-13T12:44:27.192Z,99013.75
2022-09-13T12:47:11.262Z,99009.67
2022-09-13T12:48:26.183Z,99017.20
2022-09-13T12:49:50.144Z,99020.99
2022-09-13T12:51:15.507Z,99017.56
2022-09-13T12:52:27.246Z,99016.91
2022-09-13T12:53:50.057Z,99014.58
2022-09-13T12:55:29.642Z,99018.09
2022-09-13T12:56:24.187Z,99020.80
2022-09-13T12:57:35.358Z,99022.28
2022-09-13T12:58:50.556Z,99022.48
2022-09-13T13:00:13.230Z,99017.28
2022-09-13T13:01:26.385Z,99026.37
2022-09-13T13:02:54.630Z,99026.01
2022-09-13T13:04:00.795Z,99018.95
2022-09-13T13:05:26.368Z,99023.77
2022-09-13T13:06:35.994Z,99027.48
2022-09-13T13:07:39.302Z,99031.58
2022-09-13T13:08:44.901Z,99025.05
2022-09-13T13:09:55.626Z,99033.42
2022-09-13T13:11:13.997Z,99035.45
2022-09-13T13:12:38.014Z,99035.86
2022-09-13T13:13:46.858Z,99034.57
2022-09-13T13:14:50.224Z,99032.45
2022-09-13T13:15:55.829Z,99031.99
2022-09-13T13:17:35.370Z,99038.38
2022-09-13T13:18:45.812Z,99030.56
2022-09-13T13:19:48.482Z,99023.42
2022-09-13T13:20:56.971Z,99032.66
2022-09-13T13:22:36.583Z,99024.09
2022-09-13T13:23:42.545Z,99032.81
2022-09-13T13:24:47.579Z,99031.33
2022-09-13T13:26:22.388Z,99030.83
2022-09-13T13:27:37.681Z,99034.09
2022-09-13T13:28:47.312Z,99026.55